Time;durP1;ratioP1;P1;durP2;ratioP2;P2;SDS_P1;SDS_P2;PMS_P1;PMS_P2;Temp;Humidity;BMP_temperature;BMP_pressure;BME280_temperature;BME280_humidity;BME280_pressure;Samples;Min_cycle;Max_cycle;Signal;HPM_P1;HPM_P2
2022/01/11 00:00:45;;;;;;;22.33;14.90;;;5.20;99.90;;;;;;5013127;28;20261;-60
2022/01/11 00:03:14;;;;;;;19.67;14.57;;;5.20;99.90;;;;;;5013546;28;20234;-62
2022/01/11 00:05:47;;;;;;;20.87;13.67;;;5.20;99.90;;;;;;5013439;28;20207;-59
2022/01/11 00:08:15;;;;;;;22.53;14.53;;;5.10;99.90;;;;;;5012837;28;20265;-61
2022/01/11 00:10:49;;;;;;;21.90;13.90;;;5.00;99.90;;;;;;5013444;28;20398;-62
2022/01/11 00:13:18;;;;;;;21.30;13.87;;;5.00;99.90;;;;;;5012974;28;20263;-62
2022/01/11 00:15:45;;;;;;;19.87;14.70;;;5.10;99.90;;;;;;5012759;28;20214;-62
2022/01/11 00:18:12;;;;;;;20.67;13.47;;;5.20;99.90;;;;;;5010914;28;20207;-62
2022/01/11 00:20:39;;;;;;;22.97;14.60;;;5.30;99.90;;;;;;5012939;28;20269;-61
2022/01/11 00:25:55;;;;;;;20.70;14.23;;;5.50;99.90;;;;;;5032692;28;20299;-69
2022/01/11 00:28:25;;;;;;;20.17;14.20;;;5.60;99.90;;;;;;5032531;28;20234;-69
2022/01/11 00:30:52;;;;;;;19.10;13.77;;;5.60;99.90;;;;;;5032336;28;20296;-68
2022/01/11 00:33:24;;;;;;;20.40;14.37;;;5.70;99.90;;;;;;5032586;28;20233;-68
2022/01/11 00:35:59;;;;;;;21.70;13.47;;;5.70;99.90;;;;;;5032500;28;20206;-68
2022/01/11 00:38:28;;;;;;;17.40;12.90;;;5.70;99.90;;;;;;5032120;28;20201;-67
2022/01/11 00:40:57;;;;;;;20.33;13.77;;;5.70;99.90;;;;;;5032600;28;20210;-64
2022/01/11 00:43:27;;;;;;;20.53;13.90;;;5.70;99.90;;;;;;5030291;28;20226;-63
2022/01/11 00:45:55;;;;;;;23.70;14.93;;;5.60;99.90;;;;;;5031949;28;20210;-68
2022/01/11 00:48:22;;;;;;;19.93;14.07;;;5.50;99.90;;;;;;5031748;28;20245;-66
2022/01/11 00:50:49;;;;;;;21.63;14.77;;;5.50;99.90;;;;;;5017271;28;20243;-68
2022/01/11 00:53:18;;;;;;;22.50;14.40;;;5.40;99.90;;;;;;5012975;28;20239;-68
2022/01/11 00:55:45;;;;;;;24.10;14.80;;;5.40;99.90;;;;;;5012341;28;20225;-67
2022/01/11 00:58:11;;;;;;;22.37;13.47;;;5.40;99.90;;;;;;5012245;28;20440;-62
2022/01/11 01:00:39;;;;;;;21.40;13.60;;;5.40;99.90;;;;;;5012503;28;20206;-68
2022/01/11 01:03:07;;;;;;;20.43;13.93;;;5.40;99.90;;;;;;5012259;28;20231;-68
2022/01/11 01:05:34;;;;;;;20.90;14.10;;;5.50;99.90;;;;;;5012733;28;20213;-67
2022/01/11 01:08:01;;;;;;;22.97;14.93;;;5.50;99.90;;;;;;5012555;28;20210;-67
2022/01/11 01:10:35;;;;;;;24.83;14.73;;;5.60;99.90;;;;;;5012393;28;20206;-67
2022/01/11 01:13:04;;;;;;;22.87;14.80;;;5.60;99.90;;;;;;5022984;28;20230;-67
2022/01/11 01:15:34;;;;;;;22.90;14.23;;;5.50;99.90;;;;;;5031633;28;20213;-65
2022/01/11 01:18:03;;;;;;;20.67;14.07;;;5.50;99.90;;;;;;5031848;28;20305;-68
2022/01/11 01:20:30;;;;;;;26.90;15.60;;;5.60;99.90;;;;;;5019344;28;20214;-68
2022/01/11 01:22:56;;;;;;;20.30;14.03;;;5.70;99.90;;;;;;5011265;28;20336;-67
2022/01/11 01:25:24;;;;;;;20.67;14.07;;;5.80;99.90;;;;;;5012444;28;20559;-66
2022/01/11 01:27:52;;;;;;;19.17;13.77;;;5.70;99.90;;;;;;5012170;28;20211;-65
2022/01/11 01:30:21;;;;;;;21.90;12.80;;;5.70;99.90;;;;;;5011895;28;20209;-66
2022/01/11 01:32:49;;;;;;;20.33;13.00;;;5.70;99.90;;;;;;5012280;28;20235;-66
2022/01/11 01:35:18;;;;;;;21.57;14.33;;;5.70;99.90;;;;;;5012163;28;20658;-66
2022/01/11 01:37:45;;;;;;;19.60;13.53;;;5.60;99.90;;;;;;5012526;28;20273;-65
2022/01/11 01:40:13;;;;;;;23.80;14.33;;;5.60;99.90;;;;;;5012201;28;20203;-66
2022/01/11 01:42:40;;;;;;;19.40;13.73;;;5.40;99.90;;;;;;5012200;28;20318;-65
2022/01/11 01:45:07;;;;;;;21.77;13.73;;;5.40;99.90;;;;;;5012754;28;20211;-65
2022/01/11 01:47:34;;;;;;;22.43;13.37;;;5.40;99.90;;;;;;5012904;28;20203;-66
2022/01/11 01:50:02;;;;;;;21.27;14.23;;;5.30;99.90;;;;;;5012314;28;20253;-65
2022/01/11 01:52:30;;;;;;;20.97;13.57;;;5.20;99.90;;;;;;5012809;28;20321;-65
2022/01/11 01:54:57;;;;;;;18.47;13.70;;;5.20;99.90;;;;;;5012500;28;20207;-65
2022/01/11 01:57:25;;;;;;;21.40;12.97;;;5.20;99.90;;;;;;5012164;28;20613;-66
2022/01/11 01:59:52;;;;;;;20.23;14.10;;;5.30;99.90;;;;;;5012139;28;20207;-66
2022/01/11 02:02:19;;;;;;;18.37;12.37;;;5.30;99.90;;;;;;5012278;28;20273;-65
2022/01/11 02:04:47;;;;;;;21.10;13.47;;;5.30;99.90;;;;;;5012876;28;20241;-66
2022/01/11 02:07:14;;;;;;;19.40;12.83;;;5.30;99.90;;;;;;5012357;28;20203;-66
2022/01/11 02:09:43;;;;;;;20.70;13.57;;;5.30;99.90;;;;;;5012318;28;20714;-66
2022/01/11 02:12:10;;;;;;;18.67;12.60;;;5.30;99.90;;;;;;5012825;28;20231;-65
2022/01/11 02:14:36;;;;;;;20.23;12.97;;;5.30;99.90;;;;;;5012349;28;20583;-66
2022/01/11 02:17:04;;;;;;;19.87;13.57;;;5.40;99.90;;;;;;5012529;28;20636;-66
2022/01/11 02:19:30;;;;;;;22.07;14.27;;;5.40;99.90;;;;;;5012015;28;20211;-66
2022/01/11 02:21:58;;;;;;;24.00;12.93;;;5.40;99.90;;;;;;5012314;28;20234;-66
2022/01/11 02:24:27;;;;;;;19.37;14.30;;;5.50;99.90;;;;;;5018957;28;20203;-65
2022/01/11 02:26:54;;;;;;;17.40;13.83;;;5.30;99.90;;;;;;5014030;28;20206;-64
2022/01/11 02:29:21;;;;;;;19.97;13.53;;;5.20;99.90;;;;;;5014575;28;20234;-65
2022/01/11 02:31:47;;;;;;;20.63;13.90;;;5.30;99.90;;;;;;5015400;28;20227;-66
2022/01/11 02:34:14;;;;;;;19.87;14.50;;;5.20;99.90;;;;;;5017781;28;20358;-65
2022/01/11 02:36:41;;;;;;;21.93;13.97;;;5.20;99.90;;;;;;5020781;28;20239;-66
2022/01/11 02:39:10;;;;;;;20.20;14.13;;;5.20;99.90;;;;;;5022407;28;20210;-65
2022/01/11 02:41:48;;;;;;;25.07;14.10;;;5.10;99.90;;;;;;5021687;28;20207;-65
2022/01/11 02:44:15;;;;;;;23.10;14.03;;;5.10;99.90;;;;;;5020802;28;20233;-66
2022/01/11 02:46:42;;;;;;;22.17;14.40;;;5.20;99.90;;;;;;5018998;28;20214;-66
2022/01/11 02:49:08;;;;;;;23.07;14.77;;;5.20;99.90;;;;;;5018235;28;20223;-65
2022/01/11 02:51:35;;;;;;;21.30;14.60;;;5.40;99.90;;;;;;5017015;28;20579;-66
2022/01/11 02:54:04;;;;;;;18.90;14.63;;;5.40;99.90;;;;;;5016170;28;20215;-65
2022/01/11 02:56:33;;;;;;;19.90;14.20;;;5.50;99.90;;;;;;5015080;28;20206;-65
2022/01/11 02:59:00;;;;;;;19.20;13.80;;;5.50;99.90;;;;;;5014620;28;20215;-66
2022/01/11 03:01:27;;;;;;;20.40;14.13;;;5.40;99.90;;;;;;5014923;28;20257;-65
2022/01/11 03:03:54;;;;;;;21.73;15.40;;;5.40;99.90;;;;;;5014590;28;20214;-66
2022/01/11 03:06:20;;;;;;;18.60;13.27;;;5.40;99.90;;;;;;5014769;28;20211;-65
2022/01/11 03:08:48;;;;;;;21.03;13.87;;;5.50;99.90;;;;;;5014598;28;20281;-65
2022/01/11 03:11:16;;;;;;;23.20;13.50;;;5.30;99.90;;;;;;5014787;28;20529;-65
2022/01/11 03:13:44;;;;;;;18.10;13.70;;;5.30;99.90;;;;;;5014711;28;20227;-65
2022/01/11 03:16:13;;;;;;;20.20;13.93;;;5.20;99.90;;;;;;5014609;28;20207;-65
2022/01/11 03:18:40;;;;;;;18.97;13.27;;;5.30;99.90;;;;;;5014084;28;20203;-65
2022/01/11 03:21:07;;;;;;;19.83;13.23;;;5.30;99.90;;;;;;5014902;28;20601;-66
2022/01/11 03:23:34;;;;;;;21.00;13.30;;;5.40;99.90;;;;;;5024018;28;20241;-66
2022/01/11 03:26:02;;;;;;;17.50;13.00;;;5.30;99.90;;;;;;5027809;28;20233;-66
2022/01/11 03:28:30;;;;;;;20.23;13.37;;;5.10;99.90;;;;;;5024914;28;20207;-66
2022/01/11 03:30:59;;;;;;;16.30;12.70;;;5.10;99.90;;;;;;5015600;28;20765;-66
2022/01/11 03:33:25;;;;;;;21.73;14.00;;;5.10;99.90;;;;;;5014712;28;20314;-65
2022/01/11 03:35:53;;;;;;;18.73;13.03;;;5.20;99.90;;;;;;5014734;28;20714;-66
2022/01/11 03:38:22;;;;;;;19.73;14.00;;;5.30;99.90;;;;;;5014979;28;20207;-64
2022/01/11 03:40:49;;;;;;;21.63;14.17;;;5.00;99.90;;;;;;5014696;28;20213;-66
2022/01/11 03:43:16;;;;;;;19.93;14.03;;;4.70;99.90;;;;;;5014644;28;20643;-65
2022/01/11 03:45:43;;;;;;;21.53;14.00;;;4.80;99.90;;;;;;5014227;28;20203;-65
2022/01/11 03:48:13;;;;;;;20.33;14.10;;;4.90;99.90;;;;;;5014242;28;20211;-66
2022/01/11 03:50:40;;;;;;;18.80;13.57;;;5.00;99.90;;;;;;5013800;28;20608;-65
2022/01/11 03:53:10;;;;;;;21.30;13.93;;;5.10;99.90;;;;;;5013908;28;20230;-65
2022/01/11 03:55:59;;;;;;;17.27;12.63;;;5.20;99.90;;;;;;5013835;28;20294;-66
2022/01/11 03:58:28;;;;;;;21.97;14.77;;;5.20;99.90;;;;;;5013922;28;20203;-66
2022/01/11 04:00:56;;;;;;;17.33;13.57;;;5.30;99.90;;;;;;5013812;28;20261;-66
2022/01/11 04:03:24;;;;;;;18.37;13.27;;;5.30;99.90;;;;;;5013769;28;20235;-66
2022/01/11 04:05:51;;;;;;;20.23;14.00;;;5.30;99.90;;;;;;5013852;28;20213;-65
2022/01/11 04:08:18;;;;;;;18.70;13.17;;;5.30;99.90;;;;;;5013712;28;20617;-65
2022/01/11 04:10:45;;;;;;;21.07;14.73;;;5.30;99.90;;;;;;5013490;28;20226;-65
2022/01/11 04:13:11;;;;;;;17.03;13.27;;;5.30;99.90;;;;;;5013435;28;20784;-65
2022/01/11 04:15:38;;;;;;;19.43;12.90;;;5.30;99.90;;;;;;5013585;28;20250;-65
2022/01/11 04:18:05;;;;;;;18.70;13.53;;;5.40;99.90;;;;;;5013642;28;20207;-65
2022/01/11 04:20:33;;;;;;;22.37;14.40;;;5.40;99.90;;;;;;5013261;28;20203;-65
2022/01/11 04:23:00;;;;;;;22.30;14.60;;;5.40;99.90;;;;;;5013290;28;20235;-65
2022/01/11 04:25:26;;;;;;;20.30;14.03;;;5.30;99.90;;;;;;5013539;28;20234;-65
2022/01/11 04:27:53;;;;;;;19.77;14.23;;;5.30;99.90;;;;;;5014156;28;20306;-66
2022/01/11 04:30:20;;;;;;;18.10;13.13;;;5.30;99.90;;;;;;5013398;28;20272;-66
2022/01/11 04:32:46;;;;;;;20.00;13.80;;;5.30;99.90;;;;;;5013585;28;20238;-65
2022/01/11 04:35:15;;;;;;;15.90;11.63;;;5.20;99.90;;;;;;5013292;28;20342;-65
2022/01/11 04:37:44;;;;;;;19.30;13.57;;;5.20;99.90;;;;;;5012976;28;20211;-65
2022/01/11 04:40:12;;;;;;;17.30;12.27;;;5.20;99.90;;;;;;5012923;28;20203;-64
2022/01/11 04:42:39;;;;;;;17.83;12.93;;;5.20;99.90;;;;;;5013106;28;20234;-64
2022/01/11 04:45:07;;;;;;;20.53;13.57;;;5.20;99.90;;;;;;5013144;28;20678;-65
2022/01/11 04:47:35;;;;;;;20.03;13.63;;;5.20;99.90;;;;;;5013001;28;20203;-66
2022/01/11 04:50:02;;;;;;;19.40;13.03;;;5.10;99.90;;;;;;5012562;28;20233;-64
2022/01/11 04:52:29;;;;;;;18.57;12.37;;;5.10;99.90;;;;;;5012878;28;20238;-64
2022/01/11 04:54:57;;;;;;;16.60;11.73;;;5.10;99.90;;;;;;5012907;28;20260;-65
2022/01/11 04:57:23;;;;;;;17.90;12.97;;;5.00;99.90;;;;;;5012161;28;20211;-67
2022/01/11 04:59:50;;;;;;;20.40;12.60;;;5.10;99.90;;;;;;5012538;28;20207;-65
2022/01/11 05:02:17;;;;;;;20.20;12.83;;;5.00;99.90;;;;;;5013104;28;20654;-64
2022/01/11 05:04:43;;;;;;;17.17;13.20;;;5.00;99.90;;;;;;5012894;28;20211;-65
2022/01/11 05:07:10;;;;;;;17.33;12.57;;;5.00;99.90;;;;;;5013332;28;20301;-65
2022/01/11 05:09:37;;;;;;;19.37;12.83;;;4.90;99.90;;;;;;5012580;28;20698;-64
2022/01/11 05:12:06;;;;;;;19.63;12.67;;;4.90;99.90;;;;;;5012858;28;20231;-64
2022/01/11 05:14:32;;;;;;;18.97;12.93;;;4.90;99.90;;;;;;5012924;28;20211;-65
2022/01/11 05:16:59;;;;;;;22.27;14.27;;;4.90;99.90;;;;;;5012793;28;20206;-65
2022/01/11 05:19:26;;;;;;;22.43;14.33;;;4.90;99.90;;;;;;5012598;28;20214;-64
2022/01/11 05:21:52;;;;;;;20.40;14.70;;;4.80;99.90;;;;;;5012940;28;20238;-64
2022/01/11 05:24:19;;;;;;;17.60;13.90;;;4.60;99.90;;;;;;5013373;28;20211;-65
2022/01/11 05:26:46;;;;;;;36.80;22.53;;;4.50;99.90;;;;;;5013201;28;20206;-64
2022/01/11 05:29:14;;;;;;;21.93;13.80;;;4.50;99.90;;;;;;5012884;28;20261;-65
2022/01/11 05:31:40;;;;;;;23.10;15.53;;;4.50;99.90;;;;;;5012904;28;20284;-66
2022/01/11 05:34:07;;;;;;;17.97;13.60;;;4.40;99.90;;;;;;5013144;28;20234;-65
2022/01/11 05:36:34;;;;;;;19.27;13.30;;;4.30;99.90;;;;;;5012989;28;20276;-65
2022/01/11 05:39:01;;;;;;;20.27;13.70;;;4.40;99.90;;;;;;5012258;28;20211;-65
2022/01/11 05:41:27;;;;;;;25.10;13.80;;;4.60;99.90;;;;;;5012244;28;20623;-64
2022/01/11 05:43:54;;;;;;;18.67;12.83;;;4.70;99.90;;;;;;5012539;28;20214;-65
2022/01/11 05:46:22;;;;;;;23.77;14.97;;;4.80;99.90;;;;;;5012282;28;20207;-64
2022/01/11 05:48:50;;;;;;;17.93;13.83;;;4.80;99.90;;;;;;5012402;28;20211;-64
2022/01/11 05:51:17;;;;;;;20.63;13.30;;;4.70;99.90;;;;;;5012582;28;20284;-64
2022/01/11 05:53:44;;;;;;;25.07;16.57;;;4.60;99.90;;;;;;5012224;28;20234;-64
2022/01/11 05:56:11;;;;;;;19.93;14.30;;;4.60;99.90;;;;;;5012312;28;20213;-67
2022/01/11 05:58:38;;;;;;;23.50;14.63;;;4.70;99.90;;;;;;5012165;28;20203;-64
2022/01/11 06:01:04;;;;;;;19.23;13.17;;;4.70;99.90;;;;;;5012191;28;20217;-64
2022/01/11 06:03:32;;;;;;;17.43;13.07;;;4.70;99.90;;;;;;5012960;28;20230;-66
2022/01/11 06:05:59;;;;;;;17.17;12.00;;;4.70;99.90;;;;;;5012974;28;20207;-66
2022/01/11 06:08:26;;;;;;;24.47;18.07;;;4.70;99.90;;;;;;5014694;28;20578;-65
2022/01/11 06:10:53;;;;;;;24.73;15.37;;;4.70;99.90;;;;;;5016591;28;20227;-67
2022/01/11 06:13:20;;;;;;;29.53;18.37;;;4.70;99.90;;;;;;5016569;28;20280;-64
2022/01/11 06:15:46;;;;;;;19.90;13.60;;;4.70;99.90;;;;;;5015988;28;20207;-65
2022/01/11 06:18:13;;;;;;;24.03;14.27;;;4.80;99.90;;;;;;5016623;28;20612;-65
2022/01/11 06:20:41;;;;;;;21.80;14.40;;;4.80;99.90;;;;;;5015774;28;20203;-65
2022/01/11 06:23:08;;;;;;;21.07;14.37;;;4.90;99.90;;;;;;5039909;22;20235;-62
2022/01/11 06:25:35;;;;;;;24.63;15.97;;;4.90;99.90;;;;;;5015449;28;20261;-62
2022/01/11 06:28:02;;;;;;;22.53;13.93;;;4.90;99.90;;;;;;5015557;28;20207;-62
2022/01/11 06:30:29;;;;;;;19.60;13.87;;;4.90;99.90;;;;;;5014949;28;20581;-62
2022/01/11 06:32:56;;;;;;;48.90;31.10;;;4.80;99.90;;;;;;5015469;28;20227;-63
2022/01/11 06:35:24;;;;;;;37.40;24.47;;;4.80;99.90;;;;;;5015431;28;20214;-63
2022/01/11 06:37:53;;;;;;;20.53;13.10;;;4.80;99.90;;;;;;5014971;28;20698;-63
2022/01/11 06:40:21;;;;;;;24.53;16.00;;;4.80;99.90;;;;;;5014872;28;20206;-62
2022/01/11 06:42:50;;;;;;;27.33;22.23;;;4.70;99.90;;;;;;5014805;28;20227;-63
2022/01/11 06:45:18;;;;;;;22.57;15.70;;;4.60;99.90;;;;;;5014560;28;20671;-62
2022/01/11 06:47:45;;;;;;;19.30;13.83;;;4.50;99.90;;;;;;5015060;28;20209;-63
2022/01/11 06:50:12;;;;;;;24.23;15.80;;;4.50;99.90;;;;;;5014577;28;20702;-63
2022/01/11 06:52:39;;;;;;;17.47;12.90;;;4.50;99.90;;;;;;5014687;28;20234;-63
2022/01/11 06:55:09;;;;;;;20.40;13.37;;;4.50;99.90;;;;;;5014783;28;20217;-62
2022/01/11 06:57:36;;;;;;;17.30;12.80;;;4.40;99.90;;;;;;5015024;28;20200;-62
2022/01/11 07:00:04;;;;;;;20.67;12.63;;;4.40;99.90;;;;;;5014797;28;20215;-62
2022/01/11 07:02:31;;;;;;;19.03;12.37;;;4.40;99.90;;;;;;5015142;28;20231;-62
2022/01/11 07:04:57;;;;;;;16.23;11.60;;;4.30;99.90;;;;;;5015301;28;20207;-63
2022/01/11 07:07:24;;;;;;;17.73;11.93;;;4.30;99.90;;;;;;5015356;28;20262;-63
2022/01/11 07:09:51;;;;;;;18.10;12.30;;;4.30;99.90;;;;;;5014421;28;20219;-62
2022/01/11 07:12:19;;;;;;;20.40;13.13;;;4.30;99.90;;;;;;5015110;28;20231;-62
2022/01/11 07:14:45;;;;;;;20.67;14.00;;;4.30;99.90;;;;;;5014858;28;20203;-60
2022/01/11 07:17:12;;;;;;;17.20;12.73;;;4.30;99.90;;;;;;5014014;28;20203;-60
2022/01/11 07:19:39;;;;;;;20.20;13.37;;;4.20;99.90;;;;;;5013328;28;20211;-60
2022/01/11 07:22:06;;;;;;;21.83;14.83;;;4.10;99.90;;;;;;5014237;28;20281;-59
2022/01/11 07:24:32;;;;;;;20.70;14.63;;;4.10;99.90;;;;;;5014309;28;20218;-60
2022/01/11 07:26:59;;;;;;;19.17;14.07;;;4.10;99.90;;;;;;5014607;28;20209;-61
2022/01/11 07:29:27;;;;;;;21.57;14.37;;;4.20;99.90;;;;;;5014307;28;20207;-60
2022/01/11 07:31:54;;;;;;;21.80;14.53;;;4.30;99.90;;;;;;5013997;28;20234;-60
2022/01/11 07:34:21;;;;;;;23.07;15.20;;;4.30;99.90;;;;;;5014214;28;20219;-60
2022/01/11 07:36:48;;;;;;;19.67;14.27;;;4.50;99.90;;;;;;5013908;28;20261;-61
2022/01/11 07:39:14;;;;;;;22.03;14.33;;;4.50;99.90;;;;;;5014081;28;20207;-60
2022/01/11 07:41:42;;;;;;;21.00;14.10;;;4.60;99.90;;;;;;5013957;28;20218;-60
2022/01/11 07:44:09;;;;;;;18.57;14.30;;;4.80;99.90;;;;;;5014074;28;20213;-59
2022/01/11 07:46:39;;;;;;;21.00;13.93;;;4.90;99.90;;;;;;5013884;28;20211;-59
2022/01/11 07:49:06;;;;;;;20.17;14.53;;;5.10;99.90;;;;;;5013771;28;20630;-64
2022/01/11 07:51:33;;;;;;;18.70;13.27;;;5.20;99.90;;;;;;5013642;28;20277;-58
2022/01/11 07:54:00;;;;;;;18.73;13.47;;;5.10;99.90;;;;;;5013887;28;20273;-60
2022/01/11 07:56:27;;;;;;;18.80;13.23;;;5.20;99.90;;;;;;5013732;28;20210;-60
2022/01/11 07:58:54;;;;;;;19.10;13.80;;;5.30;99.90;;;;;;5013271;28;20211;-61
2022/01/11 08:01:20;;;;;;;21.47;13.17;;;5.30;99.90;;;;;;5013661;28;20557;-59
2022/01/11 08:03:49;;;;;;;15.73;12.63;;;5.30;99.90;;;;;;5014200;28;20296;-60
2022/01/11 08:06:16;;;;;;;18.67;13.20;;;5.40;99.90;;;;;;5013212;28;20207;-60
2022/01/11 08:08:43;;;;;;;19.40;13.30;;;5.40;99.90;;;;;;5013516;28;20261;-61
2022/01/11 08:11:11;;;;;;;17.43;13.80;;;5.30;99.90;;;;;;5013178;28;20223;-60
2022/01/11 08:13:38;;;;;;;21.43;14.83;;;5.50;99.90;;;;;;5013255;28;20234;-60
2022/01/11 08:16:05;;;;;;;17.53;13.20;;;5.70;99.90;;;;;;5013230;28;20245;-61
2022/01/11 08:18:32;;;;;;;16.97;12.77;;;5.90;99.90;;;;;;5013165;28;20578;-60
2022/01/11 08:21:00;;;;;;;18.90;13.13;;;6.10;99.90;;;;;;5013175;28;20199;-61
2022/01/11 08:23:26;;;;;;;19.37;12.37;;;5.90;99.90;;;;;;5012985;28;20655;-61
2022/01/11 08:25:53;;;;;;;16.50;12.40;;;5.70;99.90;;;;;;5013351;28;20241;-60
2022/01/11 08:28:20;;;;;;;20.67;13.77;;;5.70;99.90;;;;;;5013240;28;20631;-58
2022/01/11 08:30:46;;;;;;;20.53;13.50;;;5.80;99.90;;;;;;5012225;28;20680;-58
2022/01/11 08:33:13;;;;;;;19.63;12.67;;;5.80;99.90;;;;;;5012378;28;20637;-59
2022/01/11 08:35:40;;;;;;;19.87;12.67;;;5.90;99.90;;;;;;5013295;28;20215;-59
2022/01/11 08:38:08;;;;;;;16.03;12.33;;;6.10;99.90;;;;;;5013132;28;20602;-61
2022/01/11 08:40:35;;;;;;;19.43;13.60;;;6.30;99.90;;;;;;5012813;28;20257;-60
2022/01/11 08:43:03;;;;;;;18.47;13.97;;;6.30;99.90;;;;;;5013031;28;20226;-59
2022/01/11 08:45:31;;;;;;;21.87;14.10;;;6.30;99.90;;;;;;5012949;28;20736;-60
2022/01/11 08:47:58;;;;;;;19.53;14.20;;;6.30;99.90;;;;;;5012597;28;20206;-59
2022/01/11 08:50:25;;;;;;;17.97;12.97;;;6.20;99.90;;;;;;5012581;28;20207;-59
2022/01/11 08:52:52;;;;;;;20.27;14.27;;;6.20;99.90;;;;;;5012694;28;20246;-59
2022/01/11 08:55:20;;;;;;;20.70;13.57;;;6.10;99.90;;;;;;5012675;28;20211;-59
2022/01/11 08:57:47;;;;;;;21.97;13.30;;;6.20;99.90;;;;;;5012311;28;20211;-60
2022/01/11 09:00:18;;;;;;;19.37;13.90;;;6.20;99.90;;;;;;5012055;28;20207;-60
2022/01/11 09:02:45;;;;;;;20.63;12.53;;;6.30;99.90;;;;;;5012577;28;20718;-60
2022/01/11 09:05:12;;;;;;;21.03;14.90;;;6.40;99.90;;;;;;5012551;28;20206;-60
2022/01/11 09:07:39;;;;;;;18.87;13.43;;;6.50;99.90;;;;;;5012672;28;20210;-60
2022/01/11 09:10:07;;;;;;;21.23;13.53;;;6.70;99.90;;;;;;5012494;28;20214;-60
2022/01/11 09:12:35;;;;;;;18.13;13.73;;;7.00;99.90;;;;;;5012620;28;20238;-67
2022/01/11 09:15:02;;;;;;;20.73;14.20;;;7.20;99.90;;;;;;5012949;28;20206;-63
2022/01/11 09:17:29;;;;;;;20.73;13.73;;;7.40;99.90;;;;;;5012611;28;20214;-62
2022/01/11 09:19:55;;;;;;;20.30;13.53;;;7.50;99.90;;;;;;5012645;28;20207;-62
2022/01/11 09:22:22;;;;;;;17.57;12.57;;;7.60;99.90;;;;;;5012846;28;20278;-61
2022/01/11 09:24:49;;;;;;;18.37;12.30;;;7.20;99.90;;;;;;5012985;28;20214;-61
2022/01/11 09:27:16;;;;;;;16.67;11.97;;;6.60;99.90;;;;;;5013067;28;20207;-61
2022/01/11 09:29:44;;;;;;;17.50;13.23;;;6.30;99.90;;;;;;5012048;28;20218;-61
2022/01/11 09:32:12;;;;;;;17.27;12.17;;;6.40;99.90;;;;;;5012560;28;20238;-59
2022/01/11 09:34:40;;;;;;;16.40;11.57;;;6.70;99.90;;;;;;5012767;28;20218;-63
2022/01/11 09:37:07;;;;;;;16.20;12.52;;;7.00;99.90;;;;;;5004927;28;20471;-63
2022/01/11 09:39:35;;;;;;;16.47;12.10;;;7.20;99.90;;;;;;5011667;28;20206;-60
2022/01/11 09:42:02;;;;;;;16.47;11.83;;;7.40;99.90;;;;;;5011780;28;20219;-62
2022/01/11 09:44:28;;;;;;;14.90;11.33;;;7.50;99.90;;;;;;5015906;28;20686;-62
2022/01/11 09:46:57;;;;;;;17.10;11.47;;;7.40;99.90;;;;;;5016018;28;20342;-60
2022/01/11 09:49:23;;;;;;;14.87;11.00;;;7.50;99.90;;;;;;5016123;28;20222;-61
2022/01/11 09:51:51;;;;;;;14.80;10.30;;;7.70;99.90;;;;;;5015737;28;20234;-60
2022/01/11 09:54:19;;;;;;;14.57;11.00;;;7.90;99.90;;;;;;5015203;28;20207;-60
2022/01/11 09:56:46;;;;;;;18.43;11.30;;;7.80;99.90;;;;;;5015553;28;20214;-63
2022/01/11 09:59:12;;;;;;;15.87;11.27;;;7.90;99.90;;;;;;5015436;28;20207;-62
2022/01/11 10:01:39;;;;;;;15.47;9.13;;;8.10;99.90;;;;;;5015678;28;20210;-62
2022/01/11 10:04:10;;;;;;;17.20;10.27;;;8.30;99.90;;;;;;5015679;28;20215;-62
2022/01/11 10:06:42;;;;;;;16.07;9.97;;;8.50;99.90;;;;;;5016042;28;20241;-62
2022/01/11 10:09:16;;;;;;;13.20;10.10;;;8.60;99.90;;;;;;5015255;28;20200;-63
2022/01/11 10:11:45;;;;;;;14.10;10.27;;;8.60;99.90;;;;;;5015676;28;20229;-60
2022/01/11 10:14:21;;;;;;;11.47;8.43;;;8.70;99.90;;;;;;5013405;28;20215;-61
2022/01/11 10:16:48;;;;;;;12.50;9.33;;;8.80;99.90;;;;;;5015401;28;20206;-61
2022/01/11 10:19:26;;;;;;;11.67;8.93;;;8.90;99.90;;;;;;5015280;28;20218;-61
2022/01/11 10:21:54;;;;;;;13.27;9.73;;;8.80;99.90;;;;;;5015404;28;20720;-62
2022/01/11 10:24:24;;;;;;;14.87;9.43;;;8.80;99.90;;;;;;5015408;28;20674;-61
2022/01/11 10:26:53;;;;;;;15.30;10.60;;;9.00;99.90;;;;;;5015495;28;20635;-62
2022/01/11 10:29:32;;;;;;;9.37;7.37;;;9.00;99.90;;;;;;5015089;28;20293;-61
2022/01/11 10:32:01;;;;;;;11.77;8.23;;;9.00;99.90;;;;;;5015041;28;20717;-62
2022/01/11 10:34:32;;;;;;;11.63;8.13;;;8.70;99.90;;;;;;5015453;28;20207;-62
2022/01/11 10:37:01;;;;;;;11.40;8.20;;;8.50;99.90;;;;;;5015314;28;20215;-61
2022/01/11 10:39:32;;;;;;;10.43;8.47;;;8.50;99.90;;;;;;5015027;28;20639;-61
2022/01/11 10:41:59;;;;;;;9.80;8.07;;;8.70;99.90;;;;;;5015071;28;20227;-61
2022/01/11 10:44:47;;;;;;;8.83;6.73;;;8.90;99.90;;;;;;5014744;28;20229;-62
2022/01/11 10:47:19;;;;;;;6.63;5.50;;;9.10;99.90;;;;;;5015059;28;20760;-62
2022/01/11 10:50:00;;;;;;;5.53;4.13;;;9.20;99.90;;;;;;5014864;28;20728;-61
2022/01/11 10:52:28;;;;;;;8.03;4.50;;;9.10;99.90;;;;;;5014946;28;20231;-62
2022/01/11 10:54:55;;;;;;;6.27;4.13;;;9.00;99.90;;;;;;5013929;28;20215;-61
2022/01/11 10:57:26;;;;;;;3.90;3.20;;;9.00;99.90;;;;;;5015170;28;20294;-61
2022/01/11 11:00:15;;;;;;;4.97;2.90;;;9.00;99.90;;;;;;5014650;28;20207;-62
2022/01/11 11:02:44;;;;;;;4.97;4.00;;;9.00;99.90;;;;;;5014587;28;20223;-62
2022/01/11 11:05:18;;;;;;;7.67;5.20;;;9.00;99.90;;;;;;5015100;28;20211;-61
2022/01/11 11:07:58;;;;;;;7.27;6.10;;;9.00;99.90;;;;;;5014649;28;20213;-60
2022/01/11 11:10:31;;;;;;;8.77;6.07;;;9.00;99.90;;;;;;5014721;28;20210;-71
2022/01/11 11:12:59;;;;;;;8.40;5.50;;;8.90;99.90;;;;;;5014393;28;20314;-61
2022/01/11 11:15:31;;;;;;;5.60;4.23;;;8.70;99.90;;;;;;5014406;28;20207;-61
2022/01/11 11:17:58;;;;;;;7.07;4.57;;;8.60;99.90;;;;;;5014093;28;20573;-61
2022/01/11 11:20:27;;;;;;;6.57;4.90;;;8.70;99.90;;;;;;5014307;28;20222;-61
2022/01/11 11:22:54;;;;;;;8.03;5.87;;;8.90;99.90;;;;;;5014176;28;20237;-61
2022/01/11 11:25:22;;;;;;;6.70;5.27;;;8.80;99.90;;;;;;5014687;28;20211;-61
2022/01/11 11:27:49;;;;;;;6.43;4.40;;;8.60;99.90;;;;;;5014177;28;20592;-60
2022/01/11 11:30:17;;;;;;;7.00;4.90;;;8.60;99.90;;;;;;5013620;28;20671;-61
2022/01/11 11:32:46;;;;;;;8.37;5.30;;;8.50;99.90;;;;;;5014792;28;20597;-62
2022/01/11 11:35:14;;;;;;;8.20;5.97;;;8.50;99.90;;;;;;5014499;28;20203;-62
2022/01/11 11:37:46;;;;;;;4.97;3.50;;;8.60;99.90;;;;;;5011839;28;20477;-61
2022/01/11 11:40:15;;;;;;;6.23;4.80;;;8.50;99.90;;;;;;5012263;28;20278;-60
2022/01/11 11:42:43;;;;;;;5.07;4.13;;;8.50;99.90;;;;;;5013808;28;20230;-61
2022/01/11 11:45:21;;;;;;;4.73;3.97;;;8.50;99.90;;;;;;5014118;28;20214;-60
2022/01/11 11:47:48;;;;;;;5.23;3.80;;;8.50;99.90;;;;;;5013490;28;20698;-60
2022/01/11 11:50:18;;;;;;;6.40;3.40;;;8.60;99.90;;;;;;5013469;28;20596;-62
2022/01/11 11:52:48;;;;;;;5.30;3.87;;;8.60;99.90;;;;;;5013604;28;20250;-62
2022/01/11 11:55:23;;;;;;;4.67;3.33;;;8.60;99.90;;;;;;5013585;28;20211;-62
2022/01/11 11:57:53;;;;;;;4.60;3.30;;;8.60;99.90;;;;;;5013680;28;20500;-61
2022/01/11 12:00:22;;;;;;;5.90;3.50;;;8.50;99.90;;;;;;5013536;28;20207;-60
2022/01/11 12:02:51;;;;;;;4.77;3.90;;;8.50;99.90;;;;;;5012617;28;20222;-63
2022/01/11 12:05:36;;;;;;;5.17;3.33;;;8.30;99.90;;;;;;5013142;28;20202;-61
2022/01/11 12:08:30;;;;;;;5.43;3.57;;;8.20;99.90;;;;;;5013349;28;20269;-61
2022/01/11 12:11:02;;;;;;;3.87;2.90;;;8.10;99.90;;;;;;5013589;28;20217;-61
2022/01/11 12:13:41;;;;;;;4.40;3.50;;;8.10;99.90;;;;;;5013221;28;20246;-62
2022/01/11 12:16:39;;;;;;;3.10;2.50;;;8.20;99.90;;;;;;5013123;28;20693;-61
2022/01/11 12:19:22;;;;;;;3.30;2.20;;;8.20;99.90;;;;;;5013354;28;20209;-62
2022/01/11 12:24:36;;;;;;;3.13;2.23;;;8.20;99.90;;;;;;5033432;22;20289;-66
2022/01/11 12:27:04;;;;;;;2.07;1.87;;;8.20;99.90;;;;;;5013191;28;20591;-66
2022/01/11 12:29:30;;;;;;;3.33;2.23;;;8.20;99.90;;;;;;5012674;28;20602;-66
2022/01/11 12:32:00;;;;;;;2.77;1.80;;;8.10;99.90;;;;;;5012757;28;20269;-66
2022/01/11 12:34:52;;;;;;;3.23;2.17;;;8.10;99.90;;;;;;4993650;28;20313;-67
2022/01/11 12:37:24;;;;;;;2.17;1.90;;;8.10;99.90;;;;;;4995956;28;20226;-66
2022/01/11 12:40:22;;;;;;;2.93;2.23;;;8.30;99.90;;;;;;4993287;28;20242;-66
2022/01/11 12:42:53;;;;;;;3.77;2.90;;;8.40;99.90;;;;;;4993271;28;20599;-67
2022/01/11 12:46:00;;;;;;;3.20;2.50;;;8.40;99.90;;;;;;4993051;28;20192;-67
2022/01/11 12:49:02;;;;;;;3.63;2.00;;;8.30;99.90;;;;;;4993182;28;20214;-69
2022/01/11 12:51:51;;;;;;;4.57;2.30;;;8.20;99.90;;;;;;4992567;28;20207;-68
2022/01/11 12:54:24;;;;;;;2.83;2.20;;;8.00;99.90;;;;;;4992423;28;20314;-68